Sentry Page Protection

Latest Glasgow METAR Decoded

What is a METAR?

Raw METAR: EGPF 240720Z 08008KT 9999 OVC011 16/13 Q1014
Time Published: Sat Jul 24 07:20:00 2021

Altimeter: 1014 hPa (29.94 inHg)
Clouds: Overcast layer at 1100ft - Reported AGL
Visibility: 10km (6.2sm)
Dewpoint: 13°C (55°F)
Temperature: 16°C (61°F)
Wind: E-080 at 8kt

Data pulled from AVWX API.

Customise webcam positions

Apply changes